Weather at Jean Airport

Public forecast

Using degrees Fahrenheit for public forecast. Weather courtesy of forecast.io.

Closest aviation weather report (METAR) to Jean Airport

Report is more than 6 hours old.

Closest report is Henderson Executive Airport, 15.5 nm (28.8 km) NE. Retrieved 2021/07/26 23:56 UTC (1 day ago):

KHND 272356Z VRB03KT 10SM CLR 37/11 A2999 RMK AO2 SLPNO 6//// T03670106

Closest aviation forecast (TAF) to Jean Airport

Closest forecast is Henderson Executive Airport, 15.5 nm (28.8 km) NE. Retrieved 2021-07-28 00:33 UTC (15 minutes ago):

TAF KHND 272331Z 2800/2824 20008KT P6SM FEW150 SCT250 FM281600 VRB05KT P6SM FEW150 SCT250 FM282300 19008KT P6SM FEW150 SCT250